createdAt,value
2019-01-09T00:00:58.868Z,0.00
2019-01-09T00:01:58.902Z,0.00
2019-01-09T00:02:58.915Z,0.00
2019-01-09T00:03:58.763Z,0.00
2019-01-09T00:04:58.835Z,0.00
2019-01-09T00:05:58.701Z,0.00
2019-01-09T00:06:58.831Z,0.00
2019-01-09T00:07:58.647Z,0.00
2019-01-09T00:08:58.611Z,0.00
2019-01-09T00:09:58.752Z,0.00
2019-01-09T00:10:58.552Z,0.00
2019-01-09T00:11:58.662Z,0.00
2019-01-09T00:12:58.506Z,0.00
2019-01-09T00:13:58.479Z,0.00
2019-01-09T00:14:58.444Z,0.00
2019-01-09T00:15:58.492Z,0.00
2019-01-09T00:16:58.383Z,0.00
2019-01-09T00:17:58.500Z,0.00
2019-01-09T00:18:58.321Z,0.00
2019-01-09T00:19:58.292Z,0.00
2019-01-09T00:20:58.422Z,0.00
2019-01-09T00:21:58.246Z,0.00
2019-01-09T00:22:58.333Z,0.00
2019-01-09T00:23:58.172Z,0.00
2019-01-09T00:24:58.145Z,0.00
2019-01-09T00:25:58.255Z,0.00
2019-01-09T00:26:58.083Z,0.00
2019-01-09T00:27:58.164Z,0.00
2019-01-09T00:28:58.033Z,0.00
2019-01-09T00:29:58.007Z,0.00
2019-01-09T00:30:58.006Z,0.00
2019-01-09T00:31:58.094Z,0.00
2019-01-09T00:32:57.902Z,0.00
2019-01-09T00:33:58.002Z,0.00
2019-01-09T00:34:57.844Z,0.00
2019-01-09T00:35:57.813Z,0.00
2019-01-09T00:36:57.925Z,0.00
2019-01-09T00:37:57.761Z,0.00
2019-01-09T00:38:57.834Z,0.00
2019-01-09T00:39:57.703Z,0.00
2019-01-09T00:40:57.663Z,0.00
2019-01-09T00:41:57.641Z,0.00
2019-01-09T00:42:57.790Z,0.00
2019-01-09T00:43:57.582Z,0.00
2019-01-09T00:44:57.676Z,0.00
2019-01-09T00:45:57.522Z,0.00
2019-01-09T00:46:57.492Z,0.00
2019-01-09T00:47:57.605Z,0.00
2019-01-09T00:48:57.430Z,0.00
2019-01-09T00:49:57.607Z,0.00
2019-01-09T00:50:57.373Z,0.00
2019-01-09T00:51:57.339Z,0.00
2019-01-09T00:52:57.313Z,0.00
2019-01-09T00:53:57.424Z,0.00
2019-01-09T00:54:57.262Z,0.00
2019-01-09T00:55:57.342Z,0.00
2019-01-09T00:56:57.203Z,0.00
2019-01-09T00:57:57.355Z,0.00
2019-01-09T00:58:57.139Z,0.00
2019-01-09T00:59:57.266Z,0.00
2019-01-09T01:00:57.073Z,0.00
2019-01-09T01:01:57.212Z,0.00
2019-01-09T01:02:57.011Z,0.00
2019-01-09T01:03:57.211Z,0.00
2019-01-09T01:04:56.951Z,0.00
2019-01-09T01:05:57.104Z,0.00
2019-01-09T01:06:56.893Z,0.00
2019-01-09T01:07:56.863Z,0.00
2019-01-09T01:08:56.836Z,0.00
2019-01-09T01:09:57.024Z,0.00
2019-01-09T01:10:56.771Z,0.00
2019-01-09T01:11:56.954Z,0.00
2019-01-09T01:12:56.725Z,0.00
2019-01-09T01:13:56.695Z,0.00
2019-01-09T01:14:56.756Z,0.00
2019-01-09T01:15:56.627Z,0.00
2019-01-09T01:16:56.662Z,0.00
2019-01-09T01:17:56.565Z,0.00
2019-01-09T01:18:56.532Z,0.00
2019-01-09T01:19:56.505Z,0.00
2019-01-09T01:20:56.596Z,0.00
2019-01-09T01:21:56.443Z,0.00
2019-01-09T01:22:56.503Z,0.00
2019-01-09T01:23:56.386Z,0.00
2019-01-09T01:24:56.412Z,0.00
2019-01-09T01:25:56.333Z,0.00
2019-01-09T01:26:56.332Z,0.00
2019-01-09T01:27:56.262Z,0.00
2019-01-09T01:28:56.342Z,0.00
2019-01-09T01:29:56.257Z,0.00
2019-01-09T01:30:56.173Z,0.00
2019-01-09T01:31:56.261Z,0.00
2019-01-09T01:32:56.126Z,0.00
2019-01-09T01:33:56.182Z,0.00
2019-01-09T01:34:56.054Z,0.00
2019-01-09T01:35:56.083Z,0.00
2019-01-09T01:36:55.991Z,0.00
2019-01-09T01:37:56.113Z,0.00
2019-01-09T01:38:55.941Z,0.00
2019-01-09T01:39:56.013Z,0.00
2019-01-09T01:40:55.882Z,0.00
2019-01-09T01:41:55.923Z,0.00
2019-01-09T01:42:55.811Z,0.00
2019-01-09T01:43:55.833Z,0.00
2019-01-09T01:44:55.752Z,0.00
2019-01-09T01:45:55.732Z,0.00
2019-01-09T01:46:55.703Z,0.00
2019-01-09T01:47:55.764Z,0.00
2019-01-09T01:48:55.644Z,0.00
2019-01-09T01:49:55.671Z,0.00
2019-01-09T01:50:55.574Z,0.00
2019-01-09T01:51:55.552Z,0.00
2019-01-09T01:52:55.594Z,0.00
2019-01-09T01:53:55.504Z,0.00
2019-01-09T01:54:55.603Z,0.00
2019-01-09T01:55:55.432Z,0.00
2019-01-09T01:56:55.392Z,0.00
2019-01-09T01:57:55.377Z,0.00
2019-01-09T01:58:55.422Z,0.00
2019-01-09T01:59:55.310Z,0.00
2019-01-09T02:00:55.343Z,0.00
2019-01-09T02:01:55.243Z,0.00
2019-01-09T02:02:55.218Z,0.00
2019-01-09T02:03:55.265Z,0.00
2019-01-09T02:04:55.153Z,0.00
2019-01-09T02:06:03.471Z,0.00
2019-01-09T02:06:55.102Z,0.00
2019-01-09T02:07:55.074Z,0.00
2019-01-09T02:08:55.192Z,0.00
2019-01-09T02:09:55.029Z,0.00
2019-01-09T02:10:55.101Z,0.00
2019-01-09T02:11:54.942Z,0.00
2019-01-09T02:12:54.925Z,0.00
2019-01-09T02:13:54.883Z,0.00
2019-01-09T02:14:54.932Z,0.00
2019-01-09T02:15:54.824Z,0.00
2019-01-09T02:16:54.946Z,0.00
2019-01-09T02:17:54.761Z,0.00
2019-01-09T02:18:54.736Z,0.00
2019-01-09T02:19:54.865Z,0.00
2019-01-09T02:20:54.684Z,0.00
2019-01-09T02:21:54.773Z,0.00
2019-01-09T02:22:54.615Z,0.00
2019-01-09T02:23:54.582Z,0.00
2019-01-09T02:24:54.557Z,0.00
2019-01-09T02:25:54.704Z,0.00
2019-01-09T02:26:54.492Z,0.00
2019-01-09T02:27:54.612Z,0.00
2019-01-09T02:28:54.433Z,0.00
2019-01-09T02:29:54.522Z,0.00
2019-01-09T02:30:54.374Z,0.00
2019-01-09T02:31:54.445Z,0.00
2019-01-09T02:32:54.312Z,0.00
2019-01-09T02:33:54.452Z,0.00
2019-01-09T02:34:54.253Z,0.00
2019-01-09T02:35:54.221Z,0.00
2019-01-09T02:36:54.373Z,0.00
2019-01-09T02:37:54.163Z,0.00
2019-01-09T02:38:54.287Z,0.00
2019-01-09T02:39:54.104Z,0.00
2019-01-09T02:40:54.196Z,0.00
2019-01-09T02:41:54.055Z,0.00
2019-01-09T02:42:54.204Z,0.00
2019-01-09T02:43:53.988Z,0.00
2019-01-09T02:44:54.126Z,0.00
2019-01-09T02:45:53.930Z,0.00
2019-01-09T02:46:54.034Z,0.00
2019-01-09T02:47:53.879Z,0.00
2019-01-09T02:48:53.943Z,0.00
2019-01-09T02:49:53.802Z,0.00
2019-01-09T02:50:53.794Z,0.00
2019-01-09T02:51:53.744Z,0.00
2019-01-09T02:52:53.872Z,0.00
2019-01-09T02:53:53.698Z,0.00
2019-01-09T02:54:54.396Z,0.00
2019-01-09T02:55:53.616Z,0.00
2019-01-09T02:56:53.584Z,0.00
2019-01-09T02:57:56.834Z,0.00
2019-01-09T02:58:53.549Z,0.00
2019-01-09T02:59:53.614Z,0.00
2019-01-09T03:00:53.474Z,0.00
2019-01-09T03:01:53.442Z,0.00
2019-01-09T03:02:53.524Z,0.00
2019-01-09T03:03:53.371Z,0.00
2019-01-09T03:04:53.543Z,0.00
2019-01-09T03:05:53.312Z,0.00
2019-01-09T03:06:53.453Z,0.00
2019-01-09T03:07:53.254Z,0.00
2019-01-09T03:08:54.396Z,0.00
2019-01-09T03:09:53.224Z,0.00
2019-01-09T03:10:53.384Z,0.00
2019-01-09T03:11:53.146Z,0.00
2019-01-09T03:12:53.116Z,0.00
2019-01-09T03:13:53.114Z,0.00
2019-01-09T03:14:53.064Z,0.00
2019-01-09T03:15:53.117Z,0.00
2019-01-09T03:16:52.983Z,0.00
2019-01-09T03:17:52.973Z,0.00
2019-01-09T03:18:52.927Z,0.00
2019-01-09T03:19:52.933Z,0.00
2019-01-09T03:20:52.876Z,0.00
2019-01-09T03:21:52.957Z,0.00
2019-01-09T03:22:52.804Z,0.00
2019-01-09T03:23:52.785Z,0.00
2019-01-09T03:24:52.851Z,0.00
2019-01-09T03:25:52.730Z,0.00
2019-01-09T03:26:52.775Z,0.00
2019-01-09T03:27:52.665Z,0.00
2019-01-09T03:28:52.628Z,0.00
2019-01-09T03:29:52.597Z,0.00
2019-01-09T03:30:52.601Z,0.00
2019-01-09T03:31:52.576Z,0.00
2019-01-09T03:32:52.614Z,0.00
2019-01-09T03:33:52.475Z,0.00
2019-01-09T03:34:52.521Z,0.00
2019-01-09T03:35:52.417Z,0.00
2019-01-09T03:36:52.428Z,0.00
2019-01-09T03:37:52.353Z,0.00
2019-01-09T03:38:52.437Z,0.00
2019-01-09T03:39:52.341Z,0.00
2019-01-09T03:40:52.267Z,0.00
2019-01-09T03:41:52.251Z,0.00
2019-01-09T03:42:52.207Z,0.00
2019-01-09T03:43:52.266Z,0.00
2019-01-09T03:44:52.141Z,0.00
2019-01-09T03:45:52.177Z,0.00
2019-01-09T03:46:52.074Z,0.00
2019-01-09T03:47:52.076Z,0.00
2019-01-09T03:48:52.016Z,0.00
2019-01-09T03:49:52.092Z,0.00
2019-01-09T03:50:52.006Z,0.00
2019-01-09T03:51:51.925Z,0.00
2019-01-09T03:52:52.014Z,0.00
2019-01-09T03:53:51.864Z,0.00
2019-01-09T03:54:51.914Z,0.00
2019-01-09T03:55:51.828Z,0.00
2019-01-09T03:56:51.773Z,0.00
2019-01-09T03:57:51.833Z,0.00
2019-01-09T03:58:51.718Z,0.00
2019-01-09T03:59:51.746Z,0.00
2019-01-09T04:00:51.655Z,0.00
2019-01-09T04:01:51.632Z,0.00
2019-01-09T04:02:51.653Z,0.00
2019-01-09T04:03:51.564Z,0.00
2019-01-09T04:04:51.569Z,0.00
2019-01-09T04:05:51.505Z,0.00
2019-01-09T04:06:51.474Z,0.00
2019-01-09T04:07:51.435Z,0.00
2019-01-09T04:08:51.501Z,0.00
2019-01-09T04:09:51.384Z,0.00
2019-01-09T04:10:51.405Z,0.00
2019-01-09T04:11:51.314Z,0.00
2019-01-09T04:12:51.317Z,0.00
2019-01-09T04:13:51.254Z,0.00
2019-01-09T04:14:51.325Z,0.00
2019-01-09T04:15:51.204Z,0.00
2019-01-09T04:16:51.233Z,0.00
2019-01-09T04:17:51.133Z,0.00
2019-01-09T04:18:51.142Z,0.00
2019-01-09T04:19:51.080Z,0.00
2019-01-09T04:20:51.156Z,0.00
2019-01-09T04:21:51.013Z,0.00
2019-01-09T04:22:50.988Z,0.00
2019-01-09T04:23:50.945Z,0.00
2019-01-09T04:24:50.973Z,0.00
2019-01-09T04:25:50.894Z,0.00
2019-01-09T04:26:50.890Z,0.00
2019-01-09T04:27:50.845Z,0.00
2019-01-09T04:28:50.804Z,0.00
2019-01-09T04:29:50.805Z,0.00
2019-01-09T04:30:50.746Z,0.00
2019-01-09T04:31:50.814Z,0.00
2019-01-09T04:32:50.683Z,0.00
2019-01-09T04:33:50.655Z,0.00
2019-01-09T04:34:50.625Z,0.00
2019-01-09T04:35:50.644Z,0.00
2019-01-09T04:36:51.694Z,0.00
2019-01-09T04:37:50.559Z,0.00
2019-01-09T04:38:50.497Z,0.00
2019-01-09T04:39:50.464Z,0.00
2019-01-09T04:40:50.465Z,0.00
2019-01-09T04:41:50.404Z,0.00
2019-01-09T04:42:50.473Z,0.00
2019-01-09T04:43:50.374Z,0.00
2019-01-09T04:44:50.316Z,0.00
2019-01-09T04:45:50.284Z,0.00
2019-01-09T04:46:50.342Z,0.00
2019-01-09T04:47:50.224Z,0.00
2019-01-09T04:48:50.204Z,0.00
2019-01-09T04:49:50.164Z,0.00
2019-01-09T04:50:50.223Z,0.00
2019-01-09T04:51:50.094Z,0.00
2019-01-09T04:52:50.134Z,0.00
2019-01-09T04:53:50.033Z,0.00
2019-01-09T04:54:50.044Z,0.00
2019-01-09T04:55:49.974Z,0.00
2019-01-09T04:56:49.954Z,0.00
2019-01-09T04:57:49.954Z,0.00
2019-01-09T04:58:49.882Z,0.00
2019-01-09T04:59:49.965Z,0.00
2019-01-09T05:00:49.874Z,0.00
2019-01-09T05:01:49.795Z,0.00
2019-01-09T05:02:49.785Z,0.00
2019-01-09T05:03:49.735Z,0.00
2019-01-09T05:04:49.823Z,0.00
2019-01-09T05:05:49.676Z,0.00
2019-01-09T05:06:49.650Z,0.00
2019-01-09T05:07:49.726Z,0.00
2019-01-09T05:08:49.573Z,0.00
2019-01-09T05:09:49.625Z,0.00
2019-01-09T05:10:49.537Z,0.00
2019-01-09T05:11:49.500Z,0.00
2019-01-09T05:12:49.455Z,0.00
2019-01-09T05:13:49.446Z,0.00
2019-01-09T05:14:49.393Z,0.00
2019-01-09T05:15:49.453Z,0.00
2019-01-09T05:16:49.334Z,0.00
2019-01-09T05:17:49.372Z,0.00
2019-01-09T05:18:49.281Z,0.00
2019-01-09T05:19:49.290Z,0.00
2019-01-09T05:20:49.205Z,0.00
2019-01-09T05:21:49.285Z,0.00
2019-01-09T05:22:49.155Z,0.00
2019-01-09T05:23:49.206Z,0.00
2019-01-09T05:24:49.094Z,0.00
2019-01-09T05:25:49.104Z,0.00
2019-01-09T05:26:49.037Z,0.00
2019-01-09T05:27:48.996Z,0.00
2019-01-09T05:28:48.971Z,0.00
2019-01-09T05:29:49.036Z,0.00
2019-01-09T05:30:48.904Z,0.00
2019-01-09T05:31:48.945Z,0.00
2019-01-09T05:32:48.844Z,0.00
2019-01-09T05:33:48.810Z,0.00
2019-01-09T05:34:48.853Z,0.00
2019-01-09T05:35:48.756Z,0.00
2019-01-09T05:36:48.763Z,0.00
2019-01-09T05:37:48.684Z,0.00
2019-01-09T05:38:48.665Z,0.00
2019-01-09T05:39:48.630Z,0.00
2019-01-09T05:40:48.687Z,0.00
2019-01-09T05:41:48.572Z,0.00
2019-01-09T05:42:48.617Z,0.00
2019-01-09T05:43:48.503Z,0.00
2019-01-09T05:44:48.475Z,0.00
2019-01-09T05:45:49.545Z,0.00
2019-01-09T05:46:48.418Z,0.00
2019-01-09T05:47:48.426Z,0.00
2019-01-09T05:48:48.360Z,0.00
2019-01-09T05:49:48.315Z,0.00
2019-01-09T05:50:48.284Z,0.00
2019-01-09T05:51:48.344Z,0.00
2019-01-09T05:52:48.228Z,0.00
2019-01-09T05:53:48.253Z,0.00
2019-01-09T05:54:48.175Z,0.00
2019-01-09T05:55:48.174Z,0.00
2019-01-09T05:56:48.109Z,0.00
2019-01-09T05:57:48.183Z,0.00
2019-01-09T05:58:48.064Z,0.00
2019-01-09T05:59:48.093Z,0.00
2019-01-09T06:00:47.978Z,0.00
2019-01-09T06:01:48.015Z,0.00
2019-01-09T06:02:47.917Z,0.00
2019-01-09T06:03:47.915Z,0.00
2019-01-09T06:04:47.868Z,0.00
2019-01-09T06:05:47.824Z,0.00
2019-01-09T06:06:47.793Z,0.00
2019-01-09T06:07:47.835Z,0.00
2019-01-09T06:08:47.758Z,0.00
2019-01-09T06:09:47.743Z,0.00
2019-01-09T06:10:47.675Z,0.00
2019-01-09T06:11:47.644Z,0.00
2019-01-09T06:12:47.665Z,0.00
2019-01-09T06:13:47.573Z,0.00
2019-01-09T06:14:47.574Z,0.00
2019-01-09T06:15:47.527Z,0.00
2019-01-09T06:16:47.484Z,0.00
2019-01-09T06:17:47.466Z,0.00
2019-01-09T06:18:47.493Z,0.00
2019-01-09T06:19:47.393Z,0.00
2019-01-09T06:20:47.407Z,0.00
2019-01-09T06:21:47.335Z,0.00
2019-01-09T06:22:47.416Z,0.00
2019-01-09T06:23:47.280Z,0.00
2019-01-09T06:24:47.325Z,0.00
2019-01-09T06:25:47.205Z,0.00
2019-01-09T06:26:47.303Z,0.00
2019-01-09T06:27:47.158Z,0.00
2019-01-09T06:28:47.115Z,0.00
2019-01-09T06:29:47.157Z,0.00
2019-01-09T06:30:47.056Z,0.00
2019-01-09T06:31:47.069Z,0.00
2019-01-09T06:32:46.994Z,0.00
2019-01-09T06:33:47.095Z,0.00
2019-01-09T06:34:46.938Z,0.00
2019-01-09T06:35:46.983Z,0.00
2019-01-09T06:36:46.867Z,0.00
2019-01-09T06:37:46.897Z,0.00
2019-01-09T06:38:46.923Z,0.00
2019-01-09T06:39:46.774Z,0.00
2019-01-09T06:40:46.818Z,0.00
2019-01-09T06:41:46.715Z,0.00
2019-01-09T06:42:46.723Z,0.00
2019-01-09T06:43:46.726Z,0.00
2019-01-09T06:44:46.626Z,0.00
2019-01-09T06:45:46.648Z,0.00
2019-01-09T06:46:46.576Z,0.00
2019-01-09T06:47:46.547Z,0.00
2019-01-09T06:48:46.495Z,0.00
2019-01-09T06:49:46.465Z,0.00
2019-01-09T06:50:46.466Z,0.00
2019-01-09T06:51:46.405Z,0.00
2019-01-09T06:52:46.478Z,0.00
2019-01-09T06:53:46.381Z,0.00
2019-01-09T06:54:46.349Z,0.00
2019-01-09T06:55:46.290Z,0.00
2019-01-09T06:56:46.306Z,0.00
2019-01-09T06:57:46.213Z,0.00
2019-01-09T06:58:46.207Z,0.00
2019-01-09T06:59:46.154Z,0.00
2019-01-09T07:00:46.223Z,0.00
2019-01-09T07:01:46.104Z,0.00
2019-01-09T07:02:46.136Z,0.00
2019-01-09T07:03:46.034Z,0.00
2019-01-09T07:04:46.045Z,0.00
2019-01-09T07:05:46.057Z,4.00
2019-01-09T07:06:45.944Z,4.00
2019-01-09T07:07:45.955Z,0.00
2019-01-09T07:08:45.890Z,4.00
2019-01-09T07:09:45.872Z,4.00
2019-01-09T07:10:45.829Z,0.00
2019-01-09T07:11:45.885Z,4.00
2019-01-09T07:12:45.755Z,4.00
2019-01-09T07:13:45.798Z,4.00
2019-01-09T07:14:45.704Z,4.00
2019-01-09T07:15:45.705Z,4.00
2019-01-09T07:16:45.637Z,8.00
2019-01-09T07:17:45.713Z,12.00
2019-01-09T07:18:45.575Z,12.00
2019-01-09T07:19:45.623Z,12.00
2019-01-09T07:20:45.512Z,12.00
2019-01-09T07:21:45.971Z,16.00
2019-01-09T07:22:45.453Z,16.00
2019-01-09T07:23:45.456Z,16.00
2019-01-09T07:24:45.395Z,16.00
2019-01-09T07:25:45.462Z,16.00
2019-01-09T07:26:45.323Z,20.00
2019-01-09T07:27:45.295Z,20.00
2019-01-09T07:28:45.379Z,20.00
2019-01-09T07:29:45.254Z,24.00
2019-01-09T07:30:45.290Z,24.00
2019-01-09T07:31:45.191Z,24.00
2019-01-09T07:32:45.143Z,28.00
2019-01-09T07:33:45.205Z,32.00
2019-01-09T07:34:45.105Z,32.00
2019-01-09T07:35:45.114Z,36.00
2019-01-09T07:36:45.024Z,44.00
2019-01-09T07:37:45.593Z,48.00
2019-01-09T07:38:44.952Z,52.00
2019-01-09T07:39:45.032Z,60.00
2019-01-09T07:40:44.892Z,60.00
2019-01-09T07:41:44.944Z,72.00
2019-01-09T07:42:44.833Z,80.00
2019-01-09T07:43:44.806Z,88.00
2019-01-09T07:44:44.862Z,96.00
2019-01-09T07:45:44.744Z,108.00
2019-01-09T07:46:44.786Z,120.00
2019-01-09T07:47:44.684Z,124.00
2019-01-09T07:48:44.652Z,128.00
2019-01-09T07:49:44.622Z,128.00
2019-01-09T07:50:44.710Z,124.00
2019-01-09T07:51:44.575Z,120.00
2019-01-09T07:52:44.605Z,116.00
2019-01-09T07:53:44.585Z,116.00
2019-01-09T07:54:44.464Z,120.00
2019-01-09T07:55:44.523Z,128.00
2019-01-09T07:56:44.401Z,140.00
2019-01-09T07:57:44.448Z,156.00
2019-01-09T07:58:44.343Z,176.00
2019-01-09T07:59:44.391Z,196.00
2019-01-09T08:00:44.283Z,216.00
2019-01-09T08:01:44.353Z,228.00
2019-01-09T08:02:51.572Z,248.00
2019-01-09T08:04:48.302Z,280.00
2019-01-09T08:05:48.204Z,296.00
2019-01-09T08:07:54.250Z,316.00
2019-01-09T08:08:52.118Z,336.00
2019-01-09T08:09:52.192Z,368.00
2019-01-09T08:10:52.062Z,408.00
2019-01-09T08:11:52.184Z,448.00
2019-01-09T08:12:51.983Z,492.00
2019-01-09T08:13:52.000Z,532.00
2019-01-09T08:14:52.018Z,560.00
2019-01-09T08:15:51.893Z,580.00
2019-01-09T08:16:51.862Z,592.00
2019-01-09T08:17:51.943Z,600.00
2019-01-09T08:18:51.803Z,644.00
2019-01-09T08:19:51.842Z,660.00
2019-01-09T08:20:51.742Z,676.00
2019-01-09T08:21:51.753Z,688.00
2019-01-09T08:22:51.682Z,708.00
2019-01-09T08:23:51.767Z,740.00
2019-01-09T08:24:51.624Z,756.00
2019-01-09T08:25:51.671Z,784.00
2019-01-09T08:26:51.573Z,828.00
2019-01-09T08:27:51.595Z,864.00
2019-01-09T08:28:51.501Z,876.00
2019-01-09T08:29:51.494Z,884.00
2019-01-09T08:30:51.450Z,920.00
2019-01-09T08:31:51.411Z,936.00
2019-01-09T08:32:51.412Z,952.00
2019-01-09T08:33:51.352Z,980.00
2019-01-09T08:34:51.422Z,1004.00
2019-01-09T08:35:51.292Z,1016.00
2019-01-09T08:36:51.254Z,1040.00
2019-01-09T08:37:51.223Z,1064.00
2019-01-09T08:38:51.261Z,1088.00
2019-01-09T08:39:51.164Z,1108.00
2019-01-09T08:40:51.161Z,1136.00
2019-01-09T08:41:51.102Z,1164.00
2019-01-09T08:42:51.073Z,1196.00
2019-01-09T08:43:51.073Z,1228.00
2019-01-09T08:44:51.011Z,1236.00
2019-01-09T08:45:51.082Z,1248.00
2019-01-09T08:46:50.953Z,1260.00
2019-01-09T08:47:50.978Z,1212.00
2019-01-09T08:48:50.891Z,1172.00
2019-01-09T08:49:50.901Z,1164.00
2019-01-09T08:50:50.832Z,1148.00
2019-01-09T08:51:50.812Z,1172.00
2019-01-09T08:52:50.775Z,1360.00
2019-01-09T08:53:50.823Z,1236.00
2019-01-09T08:54:50.982Z,1028.00
2019-01-09T08:55:50.723Z,880.00
2019-01-09T08:56:50.644Z,976.00
2019-01-09T08:57:50.641Z,1240.00
2019-01-09T08:58:50.654Z,1348.00
2019-01-09T08:59:50.552Z,1488.00
2019-01-09T09:00:50.562Z,1604.00
2019-01-09T09:01:50.492Z,1688.00
2019-01-09T09:02:50.573Z,1844.00
2019-01-09T09:03:50.443Z,1964.00
2019-01-09T09:04:50.433Z,1892.00
2019-01-09T09:05:50.392Z,1884.00
2019-01-09T09:06:50.342Z,2036.00
2019-01-09T09:07:50.403Z,1912.00
2019-01-09T09:08:50.284Z,2072.00
2019-01-09T09:09:50.252Z,2052.00
2019-01-09T09:10:50.237Z,2036.00
2019-01-09T09:11:50.222Z,2040.00
2019-01-09T09:12:50.163Z,2056.00
2019-01-09T09:13:51.154Z,2092.00
2019-01-09T09:14:50.102Z,2132.00
2019-01-09T09:15:50.073Z,2188.00
2019-01-09T09:16:50.152Z,2244.00
2019-01-09T09:17:50.012Z,2316.00
2019-01-09T09:18:50.062Z,2396.00
2019-01-09T09:19:49.953Z,2468.00
2019-01-09T09:20:49.923Z,2564.00
2019-01-09T09:21:49.892Z,2732.00
2019-01-09T09:22:49.883Z,9140.00
2019-01-09T09:23:49.922Z,17792.00
2019-01-09T09:24:49.893Z,21888.00
2019-01-09T09:25:49.775Z,25792.00
2019-01-09T09:26:49.754Z,24064.00
2019-01-09T09:27:49.811Z,23456.00
2019-01-09T09:28:49.691Z,22880.00
2019-01-09T09:29:49.724Z,22240.00
2019-01-09T09:30:49.633Z,18208.00
2019-01-09T09:31:49.606Z,16000.00
2019-01-09T09:32:49.583Z,17760.00
2019-01-09T09:33:49.642Z,23392.00
2019-01-09T09:34:49.531Z,25984.00
2019-01-09T09:35:49.564Z,25056.00
2019-01-09T09:36:49.483Z,23424.00
2019-01-09T09:37:49.485Z,23392.00
2019-01-09T09:38:49.437Z,22848.00
2019-01-09T09:39:49.472Z,24096.00
2019-01-09T09:40:49.382Z,24000.00
2019-01-09T09:41:49.396Z,23520.00
2019-01-09T09:42:49.405Z,23104.00
2019-01-09T09:43:49.327Z,22752.00
2019-01-09T09:44:49.412Z,22464.00
2019-01-09T09:45:49.276Z,22432.00
2019-01-09T09:46:49.322Z,22208.00
2019-01-09T09:47:49.234Z,21856.00
2019-01-09T09:48:49.231Z,21856.00
2019-01-09T09:49:49.183Z,21664.00
2019-01-09T09:50:49.245Z,21536.00
2019-01-09T09:51:49.146Z,21472.00
2019-01-09T09:52:49.153Z,21440.00
2019-01-09T09:53:49.114Z,21376.00
2019-01-09T09:54:49.170Z,22048.00
2019-01-09T09:55:49.071Z,21952.00
2019-01-09T09:56:49.072Z,22240.00
2019-01-09T09:57:49.039Z,22528.00
2019-01-09T09:58:49.022Z,23328.00
2019-01-09T09:59:49.006Z,24736.00
2019-01-09T10:00:49.094Z,27392.00
2019-01-09T10:01:48.974Z,30272.00
2019-01-09T10:02:49.003Z,33344.00
2019-01-09T10:03:48.939Z,43424.00
2019-01-09T10:04:48.934Z,60704.00
2019-01-09T10:05:48.925Z,70368.00
2019-01-09T10:06:48.882Z,67616.00
2019-01-09T10:07:48.943Z,66272.00
2019-01-09T10:08:48.857Z,66368.00
2019-01-09T10:09:48.843Z,66048.00
2019-01-09T10:10:48.822Z,63072.00
2019-01-09T10:11:48.853Z,64544.00
2019-01-09T10:12:48.798Z,14496.00
2019-01-09T10:13:48.872Z,8496.00
2019-01-09T10:14:48.765Z,13216.00
2019-01-09T10:15:48.815Z,14240.00
2019-01-09T10:16:48.745Z,11064.00
2019-01-09T10:17:48.792Z,67424.00
2019-01-09T10:18:48.710Z,39392.00
2019-01-09T10:19:48.702Z,62496.00
2019-01-09T10:20:48.664Z,13872.00
2019-01-09T10:21:48.712Z,9856.00
2019-01-09T10:22:48.634Z,7232.00
2019-01-09T10:23:48.633Z,5292.00
2019-01-09T10:24:48.609Z,9368.00
2019-01-09T10:25:48.581Z,16256.00
2019-01-09T10:26:48.562Z,67456.00
2019-01-09T10:27:48.663Z,68416.00
2019-01-09T10:28:48.523Z,68576.00
2019-01-09T10:29:48.573Z,69376.00
2019-01-09T10:30:48.482Z,69824.00
2019-01-09T10:31:48.475Z,70496.00
2019-01-09T10:32:48.483Z,68992.00
2019-01-09T10:33:48.443Z,73824.00
2019-01-09T10:34:48.483Z,72960.00
2019-01-09T10:35:48.406Z,77120.00
2019-01-09T10:36:48.383Z,78816.00
2019-01-09T10:37:48.365Z,77984.00
2019-01-09T10:38:48.418Z,76352.00
2019-01-09T10:39:48.334Z,76704.00
2019-01-09T10:40:48.422Z,78368.00
2019-01-09T10:41:48.302Z,79520.00
2019-01-09T10:42:48.332Z,83360.00
2019-01-09T10:43:48.275Z,83424.00
2019-01-09T10:44:48.355Z,80864.00
2019-01-09T10:45:48.242Z,80352.00
2019-01-09T10:46:48.262Z,78816.00
2019-01-09T10:47:48.213Z,76928.00
2019-01-09T10:48:48.284Z,75520.00
2019-01-09T10:49:48.184Z,72896.00
2019-01-09T10:50:48.285Z,73664.00
2019-01-09T10:51:48.161Z,71552.00
2019-01-09T10:52:48.145Z,73024.00
2019-01-09T10:53:48.132Z,73504.00
2019-01-09T10:54:48.204Z,73120.00
2019-01-09T10:55:48.112Z,72032.00
2019-01-09T10:56:48.124Z,71552.00
2019-01-09T10:57:48.081Z,69728.00
2019-01-09T10:58:48.088Z,68128.00
2019-01-09T10:59:48.143Z,67840.00
2019-01-09T11:00:48.046Z,68288.00
2019-01-09T11:01:48.048Z,69440.00
2019-01-09T11:02:48.024Z,67072.00
2019-01-09T11:03:48.066Z,66080.00
2019-01-09T11:04:47.997Z,66464.00
2019-01-09T11:05:48.075Z,66304.00
2019-01-09T11:06:47.984Z,66304.00
2019-01-09T11:07:48.094Z,67008.00
2019-01-09T11:08:47.953Z,67776.00
2019-01-09T11:09:47.941Z,66208.00
2019-01-09T11:10:47.934Z,65952.00
2019-01-09T11:11:48.001Z,64320.00
2019-01-09T11:12:47.904Z,62272.00
2019-01-09T11:13:47.923Z,63232.00
2019-01-09T11:14:47.883Z,56960.00
2019-01-09T11:15:47.877Z,59904.00
2019-01-09T11:16:47.932Z,9360.00
2019-01-09T11:17:47.842Z,57248.00
2019-01-09T11:18:47.953Z,60288.00
2019-01-09T11:19:47.822Z,61408.00
2019-01-09T11:20:47.824Z,64736.00
2019-01-09T11:21:47.791Z,64128.00
2019-01-09T11:22:47.872Z,63744.00
2019-01-09T11:23:47.774Z,64384.00
2019-01-09T11:24:47.782Z,63936.00
2019-01-09T11:25:47.754Z,63232.00
2019-01-09T11:26:47.742Z,64640.00
2019-01-09T11:27:47.814Z,65120.00
2019-01-09T11:28:47.726Z,63200.00
2019-01-09T11:29:47.812Z,63232.00
2019-01-09T11:30:47.692Z,61632.00
2019-01-09T11:31:47.695Z,61472.00
2019-01-09T11:32:47.675Z,61216.00
2019-01-09T11:33:47.737Z,61344.00
2019-01-09T11:34:47.644Z,60128.00
2019-01-09T11:35:47.764Z,58048.00
2019-01-09T11:36:47.624Z,56896.00
2019-01-09T11:37:47.613Z,58848.00
2019-01-09T11:38:55.440Z,57504.00
2019-01-09T11:39:47.596Z,59904.00
2019-01-09T11:40:47.671Z,58304.00
2019-01-09T11:41:47.575Z,56800.00
2019-01-09T11:42:47.602Z,59328.00
2019-01-09T11:43:47.555Z,46528.00
2019-01-09T11:44:47.622Z,56032.00
2019-01-09T11:45:47.522Z,56096.00
2019-01-09T11:46:47.623Z,56640.00
2019-01-09T11:47:47.510Z,58464.00
2019-01-09T11:48:47.483Z,57600.00
2019-01-09T11:49:47.472Z,56288.00
2019-01-09T11:50:47.533Z,56736.00
2019-01-09T11:51:47.469Z,57696.00
2019-01-09T11:52:47.550Z,54816.00
2019-01-09T11:53:47.423Z,54208.00
2019-01-09T11:54:47.463Z,50080.00
2019-01-09T11:55:47.403Z,54976.00
2019-01-09T11:56:47.475Z,55648.00
2019-01-09T11:57:47.381Z,57184.00
2019-01-09T11:58:47.485Z,52896.00
2019-01-09T11:59:47.383Z,36992.00
2019-01-09T12:00:47.344Z,48608.00
2019-01-09T12:01:47.403Z,48704.00
2019-01-09T12:02:47.344Z,46976.00
2019-01-09T12:03:47.412Z,47136.00
2019-01-09T12:04:47.309Z,42752.00
2019-01-09T12:05:47.282Z,48448.00
2019-01-09T12:06:47.331Z,8000.00
2019-01-09T12:07:47.262Z,38208.00
2019-01-09T12:08:49.282Z,44512.00
2019-01-09T12:09:47.232Z,7612.00
2019-01-09T12:10:47.246Z,44768.00
2019-01-09T12:11:47.213Z,44000.00
2019-01-09T12:12:47.277Z,43456.00
2019-01-09T12:13:47.183Z,44096.00
2019-01-09T12:14:47.275Z,43136.00
2019-01-09T12:15:47.160Z,6772.00
2019-01-09T12:16:47.141Z,39360.00
2019-01-09T12:17:47.193Z,37344.00
2019-01-09T12:18:47.113Z,41344.00
2019-01-09T12:19:47.203Z,30496.00
2019-01-09T12:20:47.083Z,26752.00
2019-01-09T12:21:47.075Z,42912.00
2019-01-09T12:22:47.063Z,38464.00
2019-01-09T12:23:47.138Z,6524.00
2019-01-09T12:24:47.035Z,5012.00
2019-01-09T12:25:47.048Z,5032.00
2019-01-09T12:26:47.004Z,9056.00
2019-01-09T12:27:46.983Z,11708.00
2019-01-09T12:28:53.457Z,5452.00
2019-01-09T12:29:47.064Z,7772.00
2019-01-09T12:30:46.941Z,5700.00
2019-01-09T12:31:46.974Z,3572.00
2019-01-09T12:32:46.923Z,3016.00
2019-01-09T12:33:46.983Z,3132.00
2019-01-09T12:34:46.872Z,2236.00
2019-01-09T12:35:46.990Z,2284.00
2019-01-09T12:36:46.842Z,20256.00
2019-01-09T12:37:46.913Z,3332.00
2019-01-09T12:38:46.923Z,3912.00
2019-01-09T12:39:46.784Z,22912.00
2019-01-09T12:40:46.825Z,3760.00
2019-01-09T12:41:46.741Z,2096.00
2019-01-09T12:42:46.841Z,1832.00
2019-01-09T12:43:46.703Z,1876.00
2019-01-09T12:44:46.682Z,2548.00
2019-01-09T12:45:46.752Z,3040.00